sensor_id;sensor_type;location;lat;lon;timestamp;P1;durP1;ratioP1;P2;durP2;ratioP2
67930;SDS011;63902;52.000;5.954;2022-12-10T08:22:45;26.17;;;11.55;;
67930;SDS011;63902;52.000;5.954;2022-12-10T08:24:55;82.13;;;14.00;;
67930;SDS011;63902;52.000;5.954;2022-12-10T08:25:56;22.75;;;12.57;;
67930;SDS011;63902;52.000;5.954;2022-12-10T08:28:10;33.08;;;11.18;;
67930;SDS011;63902;52.000;5.954;2022-12-10T08:29:10;50.05;;;13.90;;
67930;SDS011;63902;52.000;5.954;2022-12-10T08:40:44;57.28;;;12.70;;
67930;SDS011;63902;52.000;5.954;2022-12-10T08:41:44;45.08;;;12.45;;
67930;SDS011;63902;52.000;5.954;2022-12-10T08:42:46;42.47;;;12.63;;
67930;SDS011;63902;52.000;5.954;2022-12-10T08:43:46;55.25;;;12.65;;
67930;SDS011;63902;52.000;5.954;2022-12-10T08:44:47;57.15;;;11.95;;
67930;SDS011;63902;52.000;5.954;2022-12-10T08:45:47;67.10;;;13.95;;
67930;SDS011;63902;52.000;5.954;2022-12-10T08:46:48;56.40;;;12.05;;
67930;SDS011;63902;52.000;5.954;2022-12-10T08:47:49;35.25;;;11.52;;
67930;SDS011;63902;52.000;5.954;2022-12-10T08:48:50;32.53;;;12.30;;
67930;SDS011;63902;52.000;5.954;2022-12-10T08:49:50;31.52;;;11.48;;
67930;SDS011;63902;52.000;5.954;2022-12-10T08:50:51;63.65;;;13.30;;
67930;SDS011;63902;52.000;5.954;2022-12-10T08:51:51;73.47;;;15.07;;
67930;SDS011;63902;52.000;5.954;2022-12-10T08:52:52;35.28;;;12.75;;
67930;SDS011;63902;52.000;5.954;2022-12-10T08:53:52;52.75;;;12.88;;
67930;SDS011;63902;52.000;5.954;2022-12-10T08:54:53;96.93;;;14.23;;
67930;SDS011;63902;52.000;5.954;2022-12-10T08:55:55;53.60;;;12.98;;
67930;SDS011;63902;52.000;5.954;2022-12-10T08:56:55;64.78;;;12.43;;
67930;SDS011;63902;52.000;5.954;2022-12-10T08:57:56;47.00;;;10.55;;
67930;SDS011;63902;52.000;5.954;2022-12-10T08:58:57;44.97;;;12.30;;
67930;SDS011;63902;52.000;5.954;2022-12-10T08:59:57;44.50;;;12.95;;
67930;SDS011;63902;52.000;5.954;2022-12-10T09:00:57;39.70;;;12.10;;
67930;SDS011;63902;52.000;5.954;2022-12-10T09:01:58;20.42;;;11.45;;
67930;SDS011;63902;52.000;5.954;2022-12-10T09:02:59;47.17;;;12.80;;
67930;SDS011;63902;52.000;5.954;2022-12-10T09:03:59;71.30;;;12.63;;
67930;SDS011;63902;52.000;5.954;2022-12-10T09:05:00;34.65;;;13.65;;
67930;SDS011;63902;52.000;5.954;2022-12-10T09:06:03;72.47;;;14.73;;
67930;SDS011;63902;52.000;5.954;2022-12-10T09:07:05;27.25;;;12.95;;
67930;SDS011;63902;52.000;5.954;2022-12-10T09:08:05;57.58;;;12.68;;
67930;SDS011;63902;52.000;5.954;2022-12-10T09:09:05;32.38;;;12.57;;
67930;SDS011;63902;52.000;5.954;2022-12-10T09:10:06;36.85;;;13.48;;
67930;SDS011;63902;52.000;5.954;2022-12-10T09:11:12;28.38;;;12.68;;
67930;SDS011;63902;52.000;5.954;2022-12-10T09:12:14;24.73;;;12.32;;
67930;SDS011;63902;52.000;5.954;2022-12-10T09:13:14;29.65;;;12.40;;
67930;SDS011;63902;52.000;5.954;2022-12-10T09:14:15;21.40;;;12.95;;
67930;SDS011;63902;52.000;5.954;2022-12-10T09:15:16;49.00;;;12.93;;
67930;SDS011;63902;52.000;5.954;2022-12-10T09:16:16;42.17;;;14.05;;
67930;SDS011;63902;52.000;5.954;2022-12-10T09:17:17;32.05;;;12.30;;
67930;SDS011;63902;52.000;5.954;2022-12-10T09:18:18;51.95;;;12.70;;
67930;SDS011;63902;52.000;5.954;2022-12-10T09:19:19;26.40;;;13.05;;
67930;SDS011;63902;52.000;5.954;2022-12-10T09:20:19;69.10;;;14.25;;
67930;SDS011;63902;52.000;5.954;2022-12-10T09:21:20;24.85;;;12.45;;
67930;SDS011;63902;52.000;5.954;2022-12-10T09:22:20;67.07;;;12.90;;
67930;SDS011;63902;52.000;5.954;2022-12-10T09:23:21;33.72;;;11.05;;
67930;SDS011;63902;52.000;5.954;2022-12-10T09:24:21;28.38;;;12.25;;
67930;SDS011;63902;52.000;5.954;2022-12-10T09:25:22;47.45;;;12.77;;
67930;SDS011;63902;52.000;5.954;2022-12-10T09:26:24;33.35;;;11.90;;
67930;SDS011;63902;52.000;5.954;2022-12-10T09:27:25;24.13;;;11.77;;
67930;SDS011;63902;52.000;5.954;2022-12-10T09:28:26;34.20;;;11.82;;
67930;SDS011;63902;52.000;5.954;2022-12-10T09:29:26;124.70;;;12.90;;
67930;SDS011;63902;52.000;5.954;2022-12-10T09:30:27;24.70;;;11.30;;
67930;SDS011;63902;52.000;5.954;2022-12-10T09:31:27;49.20;;;11.80;;
67930;SDS011;63902;52.000;5.954;2022-12-10T09:32:28;48.08;;;12.65;;
67930;SDS011;63902;52.000;5.954;2022-12-10T09:33:28;48.50;;;12.68;;
67930;SDS011;63902;52.000;5.954;2022-12-10T09:34:29;36.63;;;11.38;;
67930;SDS011;63902;52.000;5.954;2022-12-10T09:35:30;27.15;;;12.27;;
67930;SDS011;63902;52.000;5.954;2022-12-10T09:36:30;41.45;;;11.20;;
67930;SDS011;63902;52.000;5.954;2022-12-10T09:37:31;129.55;;;14.18;;
67930;SDS011;63902;52.000;5.954;2022-12-10T09:38:32;49.47;;;13.40;;
67930;SDS011;63902;52.000;5.954;2022-12-10T09:39:33;69.25;;;12.77;;
67930;SDS011;63902;52.000;5.954;2022-12-10T09:40:35;36.55;;;12.32;;
67930;SDS011;63902;52.000;5.954;2022-12-10T09:41:43;31.40;;;12.65;;
67930;SDS011;63902;52.000;5.954;2022-12-10T09:43:04;21.38;;;11.50;;
67930;SDS011;63902;52.000;5.954;2022-12-10T09:44:12;26.38;;;10.00;;
67930;SDS011;63902;52.000;5.954;2022-12-10T09:45:22;28.23;;;11.65;;
67930;SDS011;63902;52.000;5.954;2022-12-10T09:46:31;46.30;;;12.93;;
67930;SDS011;63902;52.000;5.954;2022-12-10T09:47:46;68.00;;;12.32;;
67930;SDS011;63902;52.000;5.954;2022-12-10T09:48:58;21.48;;;11.23;;
67930;SDS011;63902;52.000;5.954;2022-12-10T09:51:13;20.38;;;9.07;;
67930;SDS011;63902;52.000;5.954;2022-12-10T09:52:21;52.75;;;11.07;;
67930;SDS011;63902;52.000;5.954;2022-12-10T09:53:24;24.15;;;10.63;;
67930;SDS011;63902;52.000;5.954;2022-12-10T09:54:27;28.73;;;10.88;;
67930;SDS011;63902;52.000;5.954;2022-12-10T09:55:32;59.83;;;12.25;;
67930;SDS011;63902;52.000;5.954;2022-12-10T09:56:36;23.55;;;10.00;;
67930;SDS011;63902;52.000;5.954;2022-12-10T09:57:40;26.85;;;11.68;;
67930;SDS011;63902;52.000;5.954;2022-12-10T09:58:42;33.97;;;11.15;;
67930;SDS011;63902;52.000;5.954;2022-12-10T09:59:44;25.50;;;11.60;;
67930;SDS011;63902;52.000;5.954;2022-12-10T10:00:49;14.00;;;9.52;;
67930;SDS011;63902;52.000;5.954;2022-12-10T10:01:57;44.00;;;10.80;;
67930;SDS011;63902;52.000;5.954;2022-12-10T10:05:23;41.20;;;11.23;;
67930;SDS011;63902;52.000;5.954;2022-12-10T10:06:26;40.08;;;10.32;;
67930;SDS011;63902;52.000;5.954;2022-12-10T10:07:28;17.58;;;9.98;;
67930;SDS011;63902;52.000;5.954;2022-12-10T10:33:59;40.95;;;10.38;;
67930;SDS011;63902;52.000;5.954;2022-12-10T10:35:02;32.13;;;11.82;;
67930;SDS011;63902;52.000;5.954;2022-12-10T10:50:01;57.05;;;12.15;;
67930;SDS011;63902;52.000;5.954;2022-12-10T10:51:07;51.60;;;10.65;;
67930;SDS011;63902;52.000;5.954;2022-12-10T10:52:15;32.28;;;11.40;;
67930;SDS011;63902;52.000;5.954;2022-12-10T10:53:29;31.50;;;10.82;;
67930;SDS011;63902;52.000;5.954;2022-12-10T10:54:32;24.00;;;11.68;;
67930;SDS011;63902;52.000;5.954;2022-12-10T10:55:37;25.95;;;11.45;;
67930;SDS011;63902;52.000;5.954;2022-12-10T10:56:42;28.17;;;11.85;;
67930;SDS011;63902;52.000;5.954;2022-12-10T10:57:44;55.60;;;13.77;;
67930;SDS011;63902;52.000;5.954;2022-12-10T10:58:50;27.33;;;11.25;;
67930;SDS011;63902;52.000;5.954;2022-12-10T10:59:54;28.92;;;10.95;;
67930;SDS011;63902;52.000;5.954;2022-12-10T11:00:57;27.25;;;11.35;;
67930;SDS011;63902;52.000;5.954;2022-12-10T11:02:01;47.22;;;12.80;;
67930;SDS011;63902;52.000;5.954;2022-12-10T11:03:10;37.50;;;13.70;;
67930;SDS011;63902;52.000;5.954;2022-12-10T11:04:11;25.88;;;12.95;;
67930;SDS011;63902;52.000;5.954;2022-12-10T11:05:17;37.40;;;11.80;;
67930;SDS011;63902;52.000;5.954;2022-12-10T11:06:21;36.28;;;12.98;;
67930;SDS011;63902;52.000;5.954;2022-12-10T11:11:18;23.13;;;11.23;;
67930;SDS011;63902;52.000;5.954;2022-12-10T11:12:34;54.58;;;11.52;;
67930;SDS011;63902;52.000;5.954;2022-12-10T11:24:10;23.13;;;10.98;;
67930;SDS011;63902;52.000;5.954;2022-12-10T11:25:11;24.30;;;13.13;;
67930;SDS011;63902;52.000;5.954;2022-12-10T11:26:18;33.70;;;11.60;;
67930;SDS011;63902;52.000;5.954;2022-12-10T11:27:38;42.50;;;11.85;;
67930;SDS011;63902;52.000;5.954;2022-12-10T11:28:51;23.35;;;12.18;;
67930;SDS011;63902;52.000;5.954;2022-12-10T11:30:02;20.15;;;11.43;;
67930;SDS011;63902;52.000;5.954;2022-12-10T11:31:11;26.25;;;12.27;;
67930;SDS011;63902;52.000;5.954;2022-12-10T11:32:35;16.73;;;11.00;;
67930;SDS011;63902;52.000;5.954;2022-12-10T11:33:47;32.92;;;10.75;;
67930;SDS011;63902;52.000;5.954;2022-12-10T11:34:59;22.75;;;11.43;;
67930;SDS011;63902;52.000;5.954;2022-12-10T11:36:14;57.50;;;11.20;;
67930;SDS011;63902;52.000;5.954;2022-12-10T11:37:28;37.55;;;10.75;;
67930;SDS011;63902;52.000;5.954;2022-12-10T11:38:32;43.38;;;11.43;;
67930;SDS011;63902;52.000;5.954;2022-12-10T11:39:51;27.58;;;10.05;;
67930;SDS011;63902;52.000;5.954;2022-12-10T11:41:09;30.13;;;10.73;;
67930;SDS011;63902;52.000;5.954;2022-12-10T11:42:19;21.05;;;10.95;;
67930;SDS011;63902;52.000;5.954;2022-12-10T11:43:39;30.38;;;9.93;;
67930;SDS011;63902;52.000;5.954;2022-12-10T11:44:47;29.08;;;12.00;;
67930;SDS011;63902;52.000;5.954;2022-12-10T11:45:59;37.97;;;11.60;;
67930;SDS011;63902;52.000;5.954;2022-12-10T11:47:22;23.27;;;9.82;;
67930;SDS011;63902;52.000;5.954;2022-12-10T11:48:42;19.23;;;9.70;;
67930;SDS011;63902;52.000;5.954;2022-12-10T11:49:58;25.10;;;10.45;;
67930;SDS011;63902;52.000;5.954;2022-12-10T11:51:08;27.60;;;10.90;;
67930;SDS011;63902;52.000;5.954;2022-12-10T11:52:18;42.15;;;10.50;;
67930;SDS011;63902;52.000;5.954;2022-12-10T11:53:36;26.65;;;9.48;;
67930;SDS011;63902;52.000;5.954;2022-12-10T11:54:52;20.50;;;6.90;;
67930;SDS011;63902;52.000;5.954;2022-12-10T11:56:04;60.83;;;9.88;;
67930;SDS011;63902;52.000;5.954;2022-12-10T11:57:14;39.90;;;10.93;;
67930;SDS011;63902;52.000;5.954;2022-12-10T11:58:26;17.42;;;9.98;;
67930;SDS011;63902;52.000;5.954;2022-12-10T11:59:49;22.60;;;10.07;;
67930;SDS011;63902;52.000;5.954;2022-12-10T12:00:58;49.45;;;12.07;;
67930;SDS011;63902;52.000;5.954;2022-12-10T12:02:12;38.92;;;10.98;;
67930;SDS011;63902;52.000;5.954;2022-12-10T12:05:01;54.35;;;10.95;;
67930;SDS011;63902;52.000;5.954;2022-12-10T12:06:24;21.00;;;9.85;;
67930;SDS011;63902;52.000;5.954;2022-12-10T12:07:38;22.83;;;9.25;;
67930;SDS011;63902;52.000;5.954;2022-12-10T12:08:46;28.02;;;9.73;;
67930;SDS011;63902;52.000;5.954;2022-12-10T12:10:04;22.10;;;9.40;;
67930;SDS011;63902;52.000;5.954;2022-12-10T12:11:22;38.33;;;9.40;;
67930;SDS011;63902;52.000;5.954;2022-12-10T12:12:33;45.83;;;11.27;;
67930;SDS011;63902;52.000;5.954;2022-12-10T12:13:39;21.35;;;11.23;;
67930;SDS011;63902;52.000;5.954;2022-12-10T12:14:46;37.22;;;10.40;;
67930;SDS011;63902;52.000;5.954;2022-12-10T12:15:52;44.92;;;11.23;;
67930;SDS011;63902;52.000;5.954;2022-12-10T12:17:00;24.85;;;9.90;;
67930;SDS011;63902;52.000;5.954;2022-12-10T12:18:06;26.75;;;10.15;;
67930;SDS011;63902;52.000;5.954;2022-12-10T12:19:17;23.30;;;10.60;;
67930;SDS011;63902;52.000;5.954;2022-12-10T12:20:25;34.00;;;9.65;;
67930;SDS011;63902;52.000;5.954;2022-12-10T12:21:30;43.35;;;9.63;;
67930;SDS011;63902;52.000;5.954;2022-12-10T12:22:32;76.63;;;10.90;;
67930;SDS011;63902;52.000;5.954;2022-12-10T12:23:37;39.40;;;10.65;;
67930;SDS011;63902;52.000;5.954;2022-12-10T12:24:45;20.67;;;10.98;;
67930;SDS011;63902;52.000;5.954;2022-12-10T12:25:49;19.98;;;10.85;;
67930;SDS011;63902;52.000;5.954;2022-12-10T12:26:57;22.90;;;8.50;;
67930;SDS011;63902;52.000;5.954;2022-12-10T12:28:02;40.78;;;10.60;;
67930;SDS011;63902;52.000;5.954;2022-12-10T12:29:12;38.90;;;10.20;;
67930;SDS011;63902;52.000;5.954;2022-12-10T12:30:18;32.50;;;11.68;;
67930;SDS011;63902;52.000;5.954;2022-12-10T12:31:20;25.15;;;10.88;;
67930;SDS011;63902;52.000;5.954;2022-12-10T12:32:26;23.20;;;10.57;;
67930;SDS011;63902;52.000;5.954;2022-12-10T12:33:32;20.23;;;10.93;;
67930;SDS011;63902;52.000;5.954;2022-12-10T12:34:43;33.15;;;11.57;;
67930;SDS011;63902;52.000;5.954;2022-12-10T12:35:48;37.25;;;11.48;;
67930;SDS011;63902;52.000;5.954;2022-12-10T12:36:51;39.65;;;11.48;;
67930;SDS011;63902;52.000;5.954;2022-12-10T12:37:54;21.30;;;11.10;;
67930;SDS011;63902;52.000;5.954;2022-12-10T12:38:59;34.65;;;10.63;;
67930;SDS011;63902;52.000;5.954;2022-12-10T12:40:09;25.73;;;8.70;;
67930;SDS011;63902;52.000;5.954;2022-12-10T12:41:15;28.23;;;9.38;;
67930;SDS011;63902;52.000;5.954;2022-12-10T12:42:22;21.63;;;10.20;;
67930;SDS011;63902;52.000;5.954;2022-12-10T12:43:28;27.45;;;8.90;;
67930;SDS011;63902;52.000;5.954;2022-12-10T12:44:41;34.42;;;10.60;;
67930;SDS011;63902;52.000;5.954;2022-12-10T12:45:49;22.38;;;10.75;;
67930;SDS011;63902;52.000;5.954;2022-12-10T12:46:54;20.05;;;8.65;;
67930;SDS011;63902;52.000;5.954;2022-12-10T12:47:56;42.85;;;11.20;;
67930;SDS011;63902;52.000;5.954;2022-12-10T12:49:06;34.90;;;9.88;;
67930;SDS011;63902;52.000;5.954;2022-12-10T12:50:17;26.13;;;9.85;;
67930;SDS011;63902;52.000;5.954;2022-12-10T12:51:26;34.53;;;9.38;;
67930;SDS011;63902;52.000;5.954;2022-12-10T12:52:33;35.10;;;10.38;;
67930;SDS011;63902;52.000;5.954;2022-12-10T12:53:44;23.40;;;10.48;;
67930;SDS011;63902;52.000;5.954;2022-12-10T12:54:44;26.20;;;10.43;;
67930;SDS011;63902;52.000;5.954;2022-12-10T12:55:47;33.85;;;11.40;;
67930;SDS011;63902;52.000;5.954;2022-12-10T12:56:59;22.92;;;10.80;;
67930;SDS011;63902;52.000;5.954;2022-12-10T12:58:16;39.90;;;10.48;;
67930;SDS011;63902;52.000;5.954;2022-12-10T12:59:25;23.17;;;9.60;;
67930;SDS011;63902;52.000;5.954;2022-12-10T13:00:36;34.05;;;10.52;;
67930;SDS011;63902;52.000;5.954;2022-12-10T13:01:40;32.42;;;11.73;;
67930;SDS011;63902;52.000;5.954;2022-12-10T13:02:47;33.45;;;10.02;;
67930;SDS011;63902;52.000;5.954;2022-12-10T13:03:53;38.88;;;9.90;;
67930;SDS011;63902;52.000;5.954;2022-12-10T13:04:56;35.33;;;11.88;;
67930;SDS011;63902;52.000;5.954;2022-12-10T13:06:10;44.17;;;12.45;;
67930;SDS011;63902;52.000;5.954;2022-12-10T13:07:28;21.98;;;10.35;;
67930;SDS011;63902;52.000;5.954;2022-12-10T13:08:37;50.20;;;10.93;;
67930;SDS011;63902;52.000;5.954;2022-12-10T13:09:42;24.27;;;10.45;;
67930;SDS011;63902;52.000;5.954;2022-12-10T13:10:45;37.45;;;8.68;;
67930;SDS011;63902;52.000;5.954;2022-12-10T13:13:30;75.95;;;11.43;;
67930;SDS011;63902;52.000;5.954;2022-12-10T13:14:33;42.13;;;10.50;;
67930;SDS011;63902;52.000;5.954;2022-12-10T13:15:35;39.65;;;11.70;;
67930;SDS011;63902;52.000;5.954;2022-12-10T13:19:34;45.65;;;10.10;;
67930;SDS011;63902;52.000;5.954;2022-12-10T13:20:39;34.30;;;10.23;;
67930;SDS011;63902;52.000;5.954;2022-12-10T13:21:55;105.80;;;10.52;;
67930;SDS011;63902;52.000;5.954;2022-12-10T13:22:58;66.30;;;9.55;;
67930;SDS011;63902;52.000;5.954;2022-12-10T13:24:08;77.60;;;10.13;;
67930;SDS011;63902;52.000;5.954;2022-12-10T13:25:12;45.03;;;9.38;;
67930;SDS011;63902;52.000;5.954;2022-12-10T13:26:21;97.88;;;11.77;;
67930;SDS011;63902;52.000;5.954;2022-12-10T13:27:28;53.22;;;9.93;;
67930;SDS011;63902;52.000;5.954;2022-12-10T13:28:32;65.28;;;10.95;;
67930;SDS011;63902;52.000;5.954;2022-12-10T13:29:51;53.15;;;10.18;;
67930;SDS011;63902;52.000;5.954;2022-12-10T13:31:05;26.33;;;10.45;;
67930;SDS011;63902;52.000;5.954;2022-12-10T13:32:13;22.05;;;9.85;;
67930;SDS011;63902;52.000;5.954;2022-12-10T13:33:15;23.45;;;9.10;;
67930;SDS011;63902;52.000;5.954;2022-12-10T13:34:22;37.90;;;9.73;;
67930;SDS011;63902;52.000;5.954;2022-12-10T13:35:30;35.72;;;11.02;;
67930;SDS011;63902;52.000;5.954;2022-12-10T13:36:34;68.63;;;9.65;;
67930;SDS011;63902;52.000;5.954;2022-12-10T13:37:38;18.13;;;9.30;;
67930;SDS011;63902;52.000;5.954;2022-12-10T13:38:55;20.13;;;9.50;;
67930;SDS011;63902;52.000;5.954;2022-12-10T13:40:01;73.35;;;10.18;;
67930;SDS011;63902;52.000;5.954;2022-12-10T13:41:13;27.23;;;10.35;;
67930;SDS011;63902;52.000;5.954;2022-12-10T13:42:28;39.20;;;10.50;;
67930;SDS011;63902;52.000;5.954;2022-12-10T13:43:35;20.50;;;9.00;;
67930;SDS011;63902;52.000;5.954;2022-12-10T13:44:39;64.82;;;11.20;;
67930;SDS011;63902;52.000;5.954;2022-12-10T13:45:46;34.50;;;8.43;;
67930;SDS011;63902;52.000;5.954;2022-12-10T13:46:51;21.90;;;10.32;;
67930;SDS011;63902;52.000;5.954;2022-12-10T13:47:54;39.20;;;7.72;;
67930;SDS011;63902;52.000;5.954;2022-12-10T13:49:16;33.10;;;9.15;;
67930;SDS011;63902;52.000;5.954;2022-12-10T13:50:19;28.73;;;10.52;;
67930;SDS011;63902;52.000;5.954;2022-12-10T13:51:39;58.80;;;9.50;;
67930;SDS011;63902;52.000;5.954;2022-12-10T13:52:52;30.92;;;8.25;;
67930;SDS011;63902;52.000;5.954;2022-12-10T13:54:06;42.25;;;8.32;;
67930;SDS011;63902;52.000;5.954;2022-12-10T13:55:22;33.33;;;8.77;;
67930;SDS011;63902;52.000;5.954;2022-12-10T13:56:29;135.70;;;11.73;;
67930;SDS011;63902;52.000;5.954;2022-12-10T13:59:15;10.60;;;6.80;;
67930;SDS011;63902;52.000;5.954;2022-12-10T14:00:23;32.67;;;9.15;;
67930;SDS011;63902;52.000;5.954;2022-12-10T14:01:33;25.27;;;8.45;;
67930;SDS011;63902;52.000;5.954;2022-12-10T14:02:45;20.17;;;8.35;;
67930;SDS011;63902;52.000;5.954;2022-12-10T14:04:01;36.50;;;8.30;;
67930;SDS011;63902;52.000;5.954;2022-12-10T14:05:23;32.33;;;8.00;;
67930;SDS011;63902;52.000;5.954;2022-12-10T14:06:33;39.97;;;8.27;;
67930;SDS011;63902;52.000;5.954;2022-12-10T14:07:35;35.30;;;9.77;;
67930;SDS011;63902;52.000;5.954;2022-12-10T14:08:36;20.50;;;8.02;;
67930;SDS011;63902;52.000;5.954;2022-12-10T14:09:40;28.10;;;8.07;;
67930;SDS011;63902;52.000;5.954;2022-12-10T14:10:46;30.55;;;10.52;;
67930;SDS011;63902;52.000;5.954;2022-12-10T14:11:48;58.53;;;10.38;;
67930;SDS011;63902;52.000;5.954;2022-12-10T14:12:52;54.97;;;9.90;;
67930;SDS011;63902;52.000;5.954;2022-12-10T14:13:55;31.77;;;8.65;;
67930;SDS011;63902;52.000;5.954;2022-12-10T14:14:59;29.80;;;9.88;;
67930;SDS011;63902;52.000;5.954;2022-12-10T14:16:03;23.55;;;9.30;;
67930;SDS011;63902;52.000;5.954;2022-12-10T14:17:09;154.10;;;13.80;;
67930;SDS011;63902;52.000;5.954;2022-12-10T14:18:13;74.38;;;10.35;;
67930;SDS011;63902;52.000;5.954;2022-12-10T14:19:15;20.20;;;8.23;;
67930;SDS011;63902;52.000;5.954;2022-12-10T14:20:18;124.60;;;11.98;;
67930;SDS011;63902;52.000;5.954;2022-12-10T14:21:21;48.10;;;10.15;;
67930;SDS011;63902;52.000;5.954;2022-12-10T14:22:23;88.80;;;9.45;;
67930;SDS011;63902;52.000;5.954;2022-12-10T14:23:31;48.08;;;9.50;;
67930;SDS011;63902;52.000;5.954;2022-12-10T14:24:33;31.38;;;9.55;;
67930;SDS011;63902;52.000;5.954;2022-12-10T14:25:40;54.50;;;10.07;;
67930;SDS011;63902;52.000;5.954;2022-12-10T14:26:42;67.03;;;9.27;;
67930;SDS011;63902;52.000;5.954;2022-12-10T14:27:43;75.50;;;10.55;;
67930;SDS011;63902;52.000;5.954;2022-12-10T14:28:47;20.02;;;8.80;;
67930;SDS011;63902;52.000;5.954;2022-12-10T14:29:49;110.72;;;11.02;;
67930;SDS011;63902;52.000;5.954;2022-12-10T14:30:52;29.98;;;9.80;;
67930;SDS011;63902;52.000;5.954;2022-12-10T14:31:53;50.55;;;10.57;;
67930;SDS011;63902;52.000;5.954;2022-12-10T14:32:54;25.70;;;9.05;;
67930;SDS011;63902;52.000;5.954;2022-12-10T14:34:00;43.03;;;9.15;;
67930;SDS011;63902;52.000;5.954;2022-12-10T14:35:04;20.02;;;9.20;;
67930;SDS011;63902;52.000;5.954;2022-12-10T14:36:12;28.80;;;9.80;;
67930;SDS011;63902;52.000;5.954;2022-12-10T14:37:16;25.05;;;9.30;;
67930;SDS011;63902;52.000;5.954;2022-12-10T14:38:19;35.42;;;10.00;;
67930;SDS011;63902;52.000;5.954;2022-12-10T14:39:25;32.75;;;9.13;;
67930;SDS011;63902;52.000;5.954;2022-12-10T14:40:29;45.67;;;9.60;;
67930;SDS011;63902;52.000;5.954;2022-12-10T14:41:32;29.38;;;8.82;;
67930;SDS011;63902;52.000;5.954;2022-12-10T14:42:34;63.55;;;9.48;;
67930;SDS011;63902;52.000;5.954;2022-12-10T14:43:38;34.65;;;10.23;;
67930;SDS011;63902;52.000;5.954;2022-12-10T14:44:40;24.42;;;10.13;;
67930;SDS011;63902;52.000;5.954;2022-12-10T14:45:43;25.80;;;9.27;;
67930;SDS011;63902;52.000;5.954;2022-12-10T14:46:47;131.10;;;11.38;;
67930;SDS011;63902;52.000;5.954;2022-12-10T14:47:48;61.42;;;9.10;;
67930;SDS011;63902;52.000;5.954;2022-12-10T14:48:49;76.53;;;9.57;;
67930;SDS011;63902;52.000;5.954;2022-12-10T14:49:53;47.92;;;8.90;;
67930;SDS011;63902;52.000;5.954;2022-12-10T14:50:55;46.70;;;7.32;;
67930;SDS011;63902;52.000;5.954;2022-12-10T14:52:02;80.72;;;10.07;;
67930;SDS011;63902;52.000;5.954;2022-12-10T14:53:11;85.00;;;8.55;;
67930;SDS011;63902;52.000;5.954;2022-12-10T14:54:25;68.32;;;9.50;;
67930;SDS011;63902;52.000;5.954;2022-12-10T14:55:27;24.77;;;8.32;;
67930;SDS011;63902;52.000;5.954;2022-12-10T14:56:28;36.47;;;8.68;;
67930;SDS011;63902;52.000;5.954;2022-12-10T14:57:33;44.13;;;8.73;;
67930;SDS011;63902;52.000;5.954;2022-12-10T14:58:38;37.13;;;9.52;;
67930;SDS011;63902;52.000;5.954;2022-12-10T14:59:43;63.58;;;10.18;;
67930;SDS011;63902;52.000;5.954;2022-12-10T15:00:48;73.10;;;9.02;;
67930;SDS011;63902;52.000;5.954;2022-12-10T15:01:50;62.15;;;9.57;;
67930;SDS011;63902;52.000;5.954;2022-12-10T15:02:57;70.63;;;9.15;;
67930;SDS011;63902;52.000;5.954;2022-12-10T15:04:01;41.40;;;8.25;;
67930;SDS011;63902;52.000;5.954;2022-12-10T15:05:09;41.75;;;9.27;;
67930;SDS011;63902;52.000;5.954;2022-12-10T15:06:13;49.63;;;11.38;;
67930;SDS011;63902;52.000;5.954;2022-12-10T15:07:18;38.05;;;13.10;;
67930;SDS011;63902;52.000;5.954;2022-12-10T15:08:20;61.60;;;20.35;;
67930;SDS011;63902;52.000;5.954;2022-12-10T15:09:22;63.58;;;31.83;;
67930;SDS011;63902;52.000;5.954;2022-12-10T15:10:25;71.43;;;36.97;;
67930;SDS011;63902;52.000;5.954;2022-12-10T15:11:28;72.57;;;28.67;;
67930;SDS011;63902;52.000;5.954;2022-12-10T15:12:30;89.25;;;31.50;;
67930;SDS011;63902;52.000;5.954;2022-12-10T15:13:37;50.95;;;15.90;;
67930;SDS011;63902;52.000;5.954;2022-12-10T15:14:39;50.05;;;29.05;;
67930;SDS011;63902;52.000;5.954;2022-12-10T15:15:43;69.93;;;12.95;;
67930;SDS011;63902;52.000;5.954;2022-12-10T15:16:47;29.40;;;13.68;;
67930;SDS011;63902;52.000;5.954;2022-12-10T15:17:57;37.42;;;17.33;;
67930;SDS011;63902;52.000;5.954;2022-12-10T15:19:06;84.07;;;14.43;;
67930;SDS011;63902;52.000;5.954;2022-12-10T15:20:18;38.22;;;13.48;;
67930;SDS011;63902;52.000;5.954;2022-12-10T15:21:20;48.15;;;8.30;;
67930;SDS011;63902;52.000;5.954;2022-12-10T15:22:24;45.80;;;8.63;;
67930;SDS011;63902;52.000;5.954;2022-12-10T15:23:30;57.83;;;8.30;;
67930;SDS011;63902;52.000;5.954;2022-12-10T15:24:36;46.00;;;10.00;;
67930;SDS011;63902;52.000;5.954;2022-12-10T15:25:41;80.25;;;11.80;;
67930;SDS011;63902;52.000;5.954;2022-12-10T15:26:45;38.92;;;10.65;;
67930;SDS011;63902;52.000;5.954;2022-12-10T15:27:51;47.00;;;11.68;;
67930;SDS011;63902;52.000;5.954;2022-12-10T15:29:14;90.30;;;10.55;;
67930;SDS011;63902;52.000;5.954;2022-12-10T15:30:34;31.77;;;14.05;;
67930;SDS011;63902;52.000;5.954;2022-12-10T15:31:36;84.07;;;30.17;;
67930;SDS011;63902;52.000;5.954;2022-12-10T15:32:36;78.93;;;21.38;;
67930;SDS011;63902;52.000;5.954;2022-12-10T15:33:39;45.90;;;23.73;;
67930;SDS011;63902;52.000;5.954;2022-12-10T15:34:44;44.20;;;15.38;;
67930;SDS011;63902;52.000;5.954;2022-12-10T15:35:46;59.38;;;14.00;;
67930;SDS011;63902;52.000;5.954;2022-12-10T15:36:47;119.47;;;13.57;;
67930;SDS011;63902;52.000;5.954;2022-12-10T15:37:50;92.55;;;10.05;;
67930;SDS011;63902;52.000;5.954;2022-12-10T15:38:53;35.85;;;7.50;;
67930;SDS011;63902;52.000;5.954;2022-12-10T15:39:54;39.22;;;8.68;;
67930;SDS011;63902;52.000;5.954;2022-12-10T15:40:57;17.20;;;7.70;;
67930;SDS011;63902;52.000;5.954;2022-12-10T15:41:59;99.97;;;11.57;;
67930;SDS011;63902;52.000;5.954;2022-12-10T15:43:10;54.58;;;7.75;;
67930;SDS011;63902;52.000;5.954;2022-12-10T15:44:19;56.97;;;8.98;;
67930;SDS011;63902;52.000;5.954;2022-12-10T15:45:27;32.65;;;7.97;;
67930;SDS011;63902;52.000;5.954;2022-12-10T15:46:46;89.00;;;9.10;;
67930;SDS011;63902;52.000;5.954;2022-12-10T15:47:47;78.13;;;8.40;;
67930;SDS011;63902;52.000;5.954;2022-12-10T15:48:49;20.98;;;7.47;;
67930;SDS011;63902;52.000;5.954;2022-12-10T15:49:50;73.65;;;7.70;;
67930;SDS011;63902;52.000;5.954;2022-12-10T15:50:53;53.22;;;8.07;;
67930;SDS011;63902;52.000;5.954;2022-12-10T15:51:53;86.43;;;9.43;;
67930;SDS011;63902;52.000;5.954;2022-12-10T15:52:54;76.13;;;7.00;;
67930;SDS011;63902;52.000;5.954;2022-12-10T15:53:55;35.10;;;7.47;;
67930;SDS011;63902;52.000;5.954;2022-12-10T15:54:56;45.08;;;8.65;;
67930;SDS011;63902;52.000;5.954;2022-12-10T15:55:57;36.55;;;7.60;;
67930;SDS011;63902;52.000;5.954;2022-12-10T15:56:57;45.15;;;7.63;;
67930;SDS011;63902;52.000;5.954;2022-12-10T15:57:58;47.40;;;8.23;;
67930;SDS011;63902;52.000;5.954;2022-12-10T15:58:58;20.70;;;9.25;;
67930;SDS011;63902;52.000;5.954;2022-12-10T15:59:59;26.23;;;11.50;;
67930;SDS011;63902;52.000;5.954;2022-12-10T16:01:02;43.95;;;8.55;;
67930;SDS011;63902;52.000;5.954;2022-12-10T16:02:03;64.80;;;8.63;;
67930;SDS011;63902;52.000;5.954;2022-12-10T16:03:21;34.22;;;7.35;;
67930;SDS011;63902;52.000;5.954;2022-12-10T16:04:28;20.52;;;7.00;;
67930;SDS011;63902;52.000;5.954;2022-12-10T16:05:29;30.45;;;7.15;;
67930;SDS011;63902;52.000;5.954;2022-12-10T16:06:30;24.23;;;6.57;;
67930;SDS011;63902;52.000;5.954;2022-12-10T16:07:31;65.18;;;7.65;;